sensor_id;sensor_type;location;lat;lon;timestamp;P1;durP1;ratioP1;P2;durP2;ratioP2
41221;SDS011;26952;42.884;23.918;2023-03-14T00:00:36;3.10;;;2.90;;
41221;SDS011;26952;42.884;23.918;2023-03-14T00:03:01;3.28;;;2.97;;
41221;SDS011;26952;42.884;23.918;2023-03-14T00:05:27;2.40;;;2.30;;
41221;SDS011;26952;42.884;23.918;2023-03-14T00:07:52;2.70;;;2.50;;
41221;SDS011;26952;42.884;23.918;2023-03-14T00:10:18;2.97;;;2.78;;
41221;SDS011;26952;42.884;23.918;2023-03-14T00:12:44;2.47;;;2.38;;
41221;SDS011;26952;42.884;23.918;2023-03-14T00:15:10;5.63;;;2.10;;
41221;SDS011;26952;42.884;23.918;2023-03-14T00:17:36;2.22;;;2.00;;
41221;SDS011;26952;42.884;23.918;2023-03-14T00:20:03;2.25;;;2.13;;
41221;SDS011;26952;42.884;23.918;2023-03-14T00:22:34;2.33;;;2.20;;
41221;SDS011;26952;42.884;23.918;2023-03-14T00:25:00;2.50;;;2.30;;
41221;SDS011;26952;42.884;23.918;2023-03-14T00:27:26;3.10;;;2.17;;
41221;SDS011;26952;42.884;23.918;2023-03-14T00:29:51;2.70;;;2.50;;
41221;SDS011;26952;42.884;23.918;2023-03-14T00:32:17;2.25;;;2.05;;
41221;SDS011;26952;42.884;23.918;2023-03-14T00:34:42;2.47;;;2.22;;
41221;SDS011;26952;42.884;23.918;2023-03-14T00:37:08;2.38;;;2.20;;
41221;SDS011;26952;42.884;23.918;2023-03-14T00:39:33;3.53;;;2.03;;
41221;SDS011;26952;42.884;23.918;2023-03-14T00:41:58;1.92;;;1.83;;
41221;SDS011;26952;42.884;23.918;2023-03-14T00:44:24;2.35;;;2.15;;
41221;SDS011;26952;42.884;23.918;2023-03-14T00:46:49;2.30;;;1.90;;
41221;SDS011;26952;42.884;23.918;2023-03-14T00:49:15;1.92;;;1.77;;
41221;SDS011;26952;42.884;23.918;2023-03-14T00:51:40;4.85;;;2.35;;
41221;SDS011;26952;42.884;23.918;2023-03-14T00:54:06;2.60;;;2.40;;
41221;SDS011;26952;42.884;23.918;2023-03-14T00:56:31;3.22;;;2.92;;
41221;SDS011;26952;42.884;23.918;2023-03-14T00:58:56;4.18;;;2.75;;
41221;SDS011;26952;42.884;23.918;2023-03-14T01:01:22;2.78;;;2.58;;
41221;SDS011;26952;42.884;23.918;2023-03-14T01:03:51;2.42;;;2.28;;
41221;SDS011;26952;42.884;23.918;2023-03-14T01:06:25;3.17;;;2.83;;
41221;SDS011;26952;42.884;23.918;2023-03-14T01:08:51;3.58;;;3.35;;
41221;SDS011;26952;42.884;23.918;2023-03-14T01:11:19;3.70;;;3.50;;
41221;SDS011;26952;42.884;23.918;2023-03-14T01:13:55;3.80;;;3.40;;
41221;SDS011;26952;42.884;23.918;2023-03-14T01:16:22;4.05;;;3.70;;
41221;SDS011;26952;42.884;23.918;2023-03-14T01:18:49;3.65;;;3.45;;
41221;SDS011;26952;42.884;23.918;2023-03-14T01:21:16;3.33;;;3.13;;
41221;SDS011;26952;42.884;23.918;2023-03-14T01:23:47;3.58;;;3.38;;
41221;SDS011;26952;42.884;23.918;2023-03-14T01:26:13;4.20;;;3.10;;
41221;SDS011;26952;42.884;23.918;2023-03-14T01:28:43;3.58;;;3.30;;
41221;SDS011;26952;42.884;23.918;2023-03-14T01:31:10;3.22;;;3.08;;
41221;SDS011;26952;42.884;23.918;2023-03-14T01:33:36;3.38;;;3.17;;
41221;SDS011;26952;42.884;23.918;2023-03-14T01:36:02;3.17;;;2.97;;
41221;SDS011;26952;42.884;23.918;2023-03-14T01:38:29;3.10;;;2.90;;
41221;SDS011;26952;42.884;23.918;2023-03-14T01:40:56;3.33;;;3.13;;
41221;SDS011;26952;42.884;23.918;2023-03-14T01:43:21;3.33;;;3.13;;
41221;SDS011;26952;42.884;23.918;2023-03-14T01:51:12;3.30;;;3.00;;
41221;SDS011;26952;42.884;23.918;2023-03-14T01:53:43;2.70;;;2.55;;
41221;SDS011;26952;42.884;23.918;2023-03-14T01:56:11;3.28;;;2.78;;
41221;SDS011;26952;42.884;23.918;2023-03-14T01:58:39;3.50;;;2.88;;
41221;SDS011;26952;42.884;23.918;2023-03-14T02:01:08;2.80;;;2.60;;
41221;SDS011;26952;42.884;23.918;2023-03-14T02:03:36;3.05;;;2.85;;
41221;SDS011;26952;42.884;23.918;2023-03-14T02:06:10;2.38;;;2.28;;
41221;SDS011;26952;42.884;23.918;2023-03-14T02:08:36;2.88;;;2.67;;
41221;SDS011;26952;42.884;23.918;2023-03-14T02:11:05;2.80;;;2.60;;
41221;SDS011;26952;42.884;23.918;2023-03-14T02:13:32;2.78;;;2.60;;
41221;SDS011;26952;42.884;23.918;2023-03-14T02:15:57;2.75;;;2.55;;
41221;SDS011;26952;42.884;23.918;2023-03-14T02:18:23;2.80;;;2.60;;
41221;SDS011;26952;42.884;23.918;2023-03-14T02:23:15;3.42;;;3.20;;
41221;SDS011;26952;42.884;23.918;2023-03-14T02:25:46;2.83;;;2.63;;
41221;SDS011;26952;42.884;23.918;2023-03-14T02:28:17;2.35;;;2.15;;
41221;SDS011;26952;42.884;23.918;2023-03-14T02:30:43;2.83;;;2.63;;
41221;SDS011;26952;42.884;23.918;2023-03-14T02:33:19;2.55;;;2.35;;
41221;SDS011;26952;42.884;23.918;2023-03-14T02:38:31;2.63;;;2.42;;
41221;SDS011;26952;42.884;23.918;2023-03-14T02:40:58;2.65;;;2.45;;
41221;SDS011;26952;42.884;23.918;2023-03-14T02:43:23;2.75;;;2.65;;
41221;SDS011;26952;42.884;23.918;2023-03-14T02:45:50;2.72;;;2.53;;
41221;SDS011;26952;42.884;23.918;2023-03-14T02:48:26;2.42;;;2.33;;
41221;SDS011;26952;42.884;23.918;2023-03-14T02:50:56;2.63;;;2.42;;
41221;SDS011;26952;42.884;23.918;2023-03-14T02:53:31;2.45;;;2.35;;
41221;SDS011;26952;42.884;23.918;2023-03-14T02:55:57;2.50;;;2.30;;
41221;SDS011;26952;42.884;23.918;2023-03-14T02:58:23;2.58;;;2.38;;
41221;SDS011;26952;42.884;23.918;2023-03-14T03:00:49;3.75;;;3.38;;
41221;SDS011;26952;42.884;23.918;2023-03-14T03:03:14;2.75;;;2.55;;
41221;SDS011;26952;42.884;23.918;2023-03-14T03:05:40;3.10;;;2.90;;
41221;SDS011;26952;42.884;23.918;2023-03-14T03:08:07;2.72;;;2.53;;
41221;SDS011;26952;42.884;23.918;2023-03-14T03:10:33;2.92;;;2.70;;
41221;SDS011;26952;42.884;23.918;2023-03-14T03:12:58;2.92;;;2.72;;
41221;SDS011;26952;42.884;23.918;2023-03-14T03:15:24;2.60;;;2.47;;
41221;SDS011;26952;42.884;23.918;2023-03-14T03:17:49;6.30;;;3.20;;
41221;SDS011;26952;42.884;23.918;2023-03-14T03:20:15;3.08;;;2.88;;
41221;SDS011;26952;42.884;23.918;2023-03-14T03:22:41;2.92;;;2.72;;
41221;SDS011;26952;42.884;23.918;2023-03-14T03:25:06;2.53;;;2.33;;
41221;SDS011;26952;42.884;23.918;2023-03-14T03:27:34;2.78;;;2.58;;
41221;SDS011;26952;42.884;23.918;2023-03-14T03:30:02;2.47;;;2.28;;
41221;SDS011;26952;42.884;23.918;2023-03-14T03:32:28;2.47;;;2.38;;
41221;SDS011;26952;42.884;23.918;2023-03-14T03:34:54;2.45;;;2.35;;
41221;SDS011;26952;42.884;23.918;2023-03-14T03:37:19;2.53;;;2.38;;
41221;SDS011;26952;42.884;23.918;2023-03-14T03:39:45;2.95;;;2.75;;
41221;SDS011;26952;42.884;23.918;2023-03-14T03:42:10;2.90;;;2.70;;
41221;SDS011;26952;42.884;23.918;2023-03-14T03:44:35;3.30;;;3.00;;
41221;SDS011;26952;42.884;23.918;2023-03-14T03:47:02;3.15;;;2.92;;
41221;SDS011;26952;42.884;23.918;2023-03-14T03:49:31;2.67;;;2.58;;
41221;SDS011;26952;42.884;23.918;2023-03-14T03:51:57;3.92;;;2.75;;
41221;SDS011;26952;42.884;23.918;2023-03-14T03:54:23;2.83;;;2.63;;
41221;SDS011;26952;42.884;23.918;2023-03-14T03:56:49;3.47;;;3.17;;
41221;SDS011;26952;42.884;23.918;2023-03-14T03:59:14;3.03;;;2.83;;
41221;SDS011;26952;42.884;23.918;2023-03-14T04:01:40;3.83;;;2.35;;
41221;SDS011;26952;42.884;23.918;2023-03-14T04:04:05;2.80;;;2.35;;
41221;SDS011;26952;42.884;23.918;2023-03-14T04:06:31;2.53;;;2.35;;
41221;SDS011;26952;42.884;23.918;2023-03-14T04:08:56;2.35;;;2.20;;
41221;SDS011;26952;42.884;23.918;2023-03-14T04:11:22;2.63;;;2.35;;
41221;SDS011;26952;42.884;23.918;2023-03-14T04:13:47;2.50;;;2.40;;
41221;SDS011;26952;42.884;23.918;2023-03-14T04:16:14;2.20;;;1.83;;
41221;SDS011;26952;42.884;23.918;2023-03-14T04:18:41;2.50;;;2.30;;
41221;SDS011;26952;42.884;23.918;2023-03-14T04:21:07;2.28;;;2.08;;
41221;SDS011;26952;42.884;23.918;2023-03-14T04:23:32;2.15;;;2.05;;
41221;SDS011;26952;42.884;23.918;2023-03-14T04:25:58;2.53;;;2.33;;
41221;SDS011;26952;42.884;23.918;2023-03-14T04:28:24;2.67;;;2.47;;
41221;SDS011;26952;42.884;23.918;2023-03-14T04:30:49;2.47;;;2.17;;
41221;SDS011;26952;42.884;23.918;2023-03-14T04:33:15;2.72;;;2.53;;
41221;SDS011;26952;42.884;23.918;2023-03-14T04:35:42;2.75;;;2.53;;
41221;SDS011;26952;42.884;23.918;2023-03-14T04:38:08;2.85;;;2.72;;
41221;SDS011;26952;42.884;23.918;2023-03-14T04:40:36;2.50;;;2.40;;
41221;SDS011;26952;42.884;23.918;2023-03-14T04:43:02;2.72;;;2.53;;
41221;SDS011;26952;42.884;23.918;2023-03-14T04:45:27;2.92;;;2.72;;
41221;SDS011;26952;42.884;23.918;2023-03-14T04:47:53;2.88;;;2.67;;
41221;SDS011;26952;42.884;23.918;2023-03-14T04:50:18;5.47;;;2.70;;
41221;SDS011;26952;42.884;23.918;2023-03-14T04:52:43;4.20;;;2.03;;
41221;SDS011;26952;42.884;23.918;2023-03-14T04:55:09;2.30;;;2.10;;
41221;SDS011;26952;42.884;23.918;2023-03-14T04:57:34;1.83;;;1.73;;
41221;SDS011;26952;42.884;23.918;2023-03-14T04:59:59;2.33;;;2.17;;
41221;SDS011;26952;42.884;23.918;2023-03-14T05:02:25;2.53;;;2.42;;
41221;SDS011;26952;42.884;23.918;2023-03-14T05:04:51;2.95;;;2.75;;
41221;SDS011;26952;42.884;23.918;2023-03-14T05:07:16;3.17;;;2.97;;
41221;SDS011;26952;42.884;23.918;2023-03-14T05:09:41;2.42;;;2.25;;
41221;SDS011;26952;42.884;23.918;2023-03-14T05:12:07;2.58;;;1.92;;
41221;SDS011;26952;42.884;23.918;2023-03-14T05:14:33;2.53;;;2.33;;
41221;SDS011;26952;42.884;23.918;2023-03-14T05:16:58;1.80;;;1.70;;
41221;SDS011;26952;42.884;23.918;2023-03-14T05:19:24;2.50;;;2.03;;
41221;SDS011;26952;42.884;23.918;2023-03-14T05:21:49;2.35;;;2.10;;
41221;SDS011;26952;42.884;23.918;2023-03-14T05:24:15;1.88;;;1.77;;
41221;SDS011;26952;42.884;23.918;2023-03-14T05:26:40;2.05;;;1.95;;
41221;SDS011;26952;42.884;23.918;2023-03-14T05:29:05;1.90;;;1.80;;
41221;SDS011;26952;42.884;23.918;2023-03-14T05:31:31;2.05;;;1.77;;
41221;SDS011;26952;42.884;23.918;2023-03-14T05:33:56;1.80;;;1.75;;
41221;SDS011;26952;42.884;23.918;2023-03-14T05:36:21;1.77;;;1.67;;
41221;SDS011;26952;42.884;23.918;2023-03-14T05:38:47;1.60;;;1.50;;
41221;SDS011;26952;42.884;23.918;2023-03-14T05:41:12;1.80;;;1.70;;
41221;SDS011;26952;42.884;23.918;2023-03-14T05:43:38;2.85;;;1.73;;
41221;SDS011;26952;42.884;23.918;2023-03-14T05:46:04;1.98;;;1.88;;
41221;SDS011;26952;42.884;23.918;2023-03-14T05:48:29;2.10;;;1.90;;
41221;SDS011;26952;42.884;23.918;2023-03-14T05:50:55;3.85;;;2.20;;
41221;SDS011;26952;42.884;23.918;2023-03-14T05:53:21;2.13;;;1.92;;
41221;SDS011;26952;42.884;23.918;2023-03-14T05:55:47;2.38;;;2.25;;
41221;SDS011;26952;42.884;23.918;2023-03-14T05:58:12;2.35;;;2.15;;
41221;SDS011;26952;42.884;23.918;2023-03-14T06:00:37;3.50;;;3.33;;
41221;SDS011;26952;42.884;23.918;2023-03-14T06:03:03;4.00;;;3.70;;
41221;SDS011;26952;42.884;23.918;2023-03-14T06:05:28;3.85;;;3.65;;
41221;SDS011;26952;42.884;23.918;2023-03-14T06:07:54;4.32;;;4.13;;
41221;SDS011;26952;42.884;23.918;2023-03-14T06:10:19;7.32;;;6.93;;
41221;SDS011;26952;42.884;23.918;2023-03-14T06:12:44;4.28;;;4.07;;
41221;SDS011;26952;42.884;23.918;2023-03-14T06:15:10;12.40;;;11.50;;
41221;SDS011;26952;42.884;23.918;2023-03-14T06:17:35;5.60;;;5.07;;
41221;SDS011;26952;42.884;23.918;2023-03-14T06:20:01;5.85;;;4.53;;
41221;SDS011;26952;42.884;23.918;2023-03-14T06:22:27;3.47;;;3.28;;
41221;SDS011;26952;42.884;23.918;2023-03-14T06:24:52;1.92;;;1.83;;
41221;SDS011;26952;42.884;23.918;2023-03-14T06:27:17;2.97;;;2.78;;
41221;SDS011;26952;42.884;23.918;2023-03-14T06:29:43;5.15;;;4.75;;
41221;SDS011;26952;42.884;23.918;2023-03-14T06:32:08;7.25;;;6.90;;
41221;SDS011;26952;42.884;23.918;2023-03-14T06:34:34;9.90;;;9.32;;
41221;SDS011;26952;42.884;23.918;2023-03-14T06:36:59;11.95;;;11.10;;
41221;SDS011;26952;42.884;23.918;2023-03-14T06:39:24;10.57;;;10.07;;
41221;SDS011;26952;42.884;23.918;2023-03-14T06:41:50;6.88;;;6.28;;
41221;SDS011;26952;42.884;23.918;2023-03-14T06:44:15;4.70;;;4.40;;
41221;SDS011;26952;42.884;23.918;2023-03-14T06:46:40;6.32;;;5.93;;
41221;SDS011;26952;42.884;23.918;2023-03-14T06:49:06;10.98;;;10.45;;
41221;SDS011;26952;42.884;23.918;2023-03-14T06:51:32;16.35;;;15.55;;
41221;SDS011;26952;42.884;23.918;2023-03-14T06:53:58;13.57;;;12.80;;
41221;SDS011;26952;42.884;23.918;2023-03-14T06:56:24;9.13;;;8.52;;
41221;SDS011;26952;42.884;23.918;2023-03-14T06:58:49;6.50;;;6.10;;
41221;SDS011;26952;42.884;23.918;2023-03-14T07:01:17;7.57;;;6.97;;
41221;SDS011;26952;42.884;23.918;2023-03-14T07:03:47;7.03;;;6.65;;
41221;SDS011;26952;42.884;23.918;2023-03-14T07:06:13;6.78;;;6.28;;
41221;SDS011;26952;42.884;23.918;2023-03-14T07:08:38;6.97;;;5.78;;
41221;SDS011;26952;42.884;23.918;2023-03-14T07:11:04;4.40;;;4.20;;
41221;SDS011;26952;42.884;23.918;2023-03-14T07:13:30;5.10;;;4.70;;
41221;SDS011;26952;42.884;23.918;2023-03-14T07:15:55;7.95;;;7.40;;
41221;SDS011;26952;42.884;23.918;2023-03-14T07:18:20;11.05;;;10.18;;
41221;SDS011;26952;42.884;23.918;2023-03-14T07:20:46;10.25;;;9.45;;
41221;SDS011;26952;42.884;23.918;2023-03-14T07:23:11;10.73;;;9.73;;
41221;SDS011;26952;42.884;23.918;2023-03-14T07:25:36;10.98;;;9.98;;
41221;SDS011;26952;42.884;23.918;2023-03-14T07:28:02;8.95;;;8.35;;
41221;SDS011;26952;42.884;23.918;2023-03-14T07:30:27;8.73;;;7.95;;
41221;SDS011;26952;42.884;23.918;2023-03-14T07:32:52;10.02;;;9.32;;
41221;SDS011;26952;42.884;23.918;2023-03-14T07:35:18;6.40;;;5.47;;
41221;SDS011;26952;42.884;23.918;2023-03-14T07:37:43;5.72;;;5.00;;
41221;SDS011;26952;42.884;23.918;2023-03-14T07:40:09;5.10;;;4.68;;
41221;SDS011;26952;42.884;23.918;2023-03-14T07:42:36;7.07;;;5.07;;
41221;SDS011;26952;42.884;23.918;2023-03-14T07:45:02;5.07;;;4.35;;
41221;SDS011;26952;42.884;23.918;2023-03-14T07:47:28;7.75;;;5.00;;
41221;SDS011;26952;42.884;23.918;2023-03-14T07:49:53;5.25;;;4.70;;
41221;SDS011;26952;42.884;23.918;2023-03-14T07:52:18;4.93;;;3.95;;
41221;SDS011;26952;42.884;23.918;2023-03-14T07:54:44;5.35;;;4.32;;
41221;SDS011;26952;42.884;23.918;2023-03-14T07:57:09;5.07;;;4.57;;
41221;SDS011;26952;42.884;23.918;2023-03-14T07:59:35;4.95;;;4.00;;
41221;SDS011;26952;42.884;23.918;2023-03-14T08:02:00;6.68;;;4.30;;
41221;SDS011;26952;42.884;23.918;2023-03-14T08:04:26;5.57;;;4.80;;
41221;SDS011;26952;42.884;23.918;2023-03-14T08:06:52;5.57;;;5.05;;
41221;SDS011;26952;42.884;23.918;2023-03-14T08:09:19;5.75;;;5.40;;
41221;SDS011;26952;42.884;23.918;2023-03-14T08:11:44;5.20;;;4.90;;
41221;SDS011;26952;42.884;23.918;2023-03-14T08:14:10;4.25;;;3.95;;
41221;SDS011;26952;42.884;23.918;2023-03-14T08:16:36;3.47;;;3.22;;
41221;SDS011;26952;42.884;23.918;2023-03-14T08:19:01;5.65;;;2.97;;
41221;SDS011;26952;42.884;23.918;2023-03-14T08:21:27;3.85;;;3.33;;
41221;SDS011;26952;42.884;23.918;2023-03-14T08:23:52;3.90;;;3.60;;
41221;SDS011;26952;42.884;23.918;2023-03-14T08:26:17;3.85;;;3.55;;
41221;SDS011;26952;42.884;23.918;2023-03-14T08:28:43;5.13;;;4.63;;
41221;SDS011;26952;42.884;23.918;2023-03-14T08:31:08;5.35;;;4.88;;
41221;SDS011;26952;42.884;23.918;2023-03-14T08:33:34;5.82;;;5.43;;
41221;SDS011;26952;42.884;23.918;2023-03-14T08:36:00;6.63;;;6.07;;
41221;SDS011;26952;42.884;23.918;2023-03-14T08:38:26;4.85;;;4.55;;
41221;SDS011;26952;42.884;23.918;2023-03-14T08:40:58;4.88;;;4.50;;
41221;SDS011;26952;42.884;23.918;2023-03-14T08:43:25;3.05;;;2.75;;
41221;SDS011;26952;42.884;23.918;2023-03-14T08:45:51;3.67;;;3.28;;
41221;SDS011;26952;42.884;23.918;2023-03-14T08:48:16;3.00;;;2.80;;
41221;SDS011;26952;42.884;23.918;2023-03-14T08:50:42;3.40;;;3.13;;
41221;SDS011;26952;42.884;23.918;2023-03-14T08:53:08;3.72;;;3.42;;
41221;SDS011;26952;42.884;23.918;2023-03-14T08:55:33;4.40;;;3.00;;
41221;SDS011;26952;42.884;23.918;2023-03-14T08:57:59;4.80;;;4.40;;
41221;SDS011;26952;42.884;23.918;2023-03-14T09:00:24;3.70;;;3.40;;
41221;SDS011;26952;42.884;23.918;2023-03-14T09:02:49;3.35;;;2.92;;
41221;SDS011;26952;42.884;23.918;2023-03-14T09:05:15;3.05;;;2.83;;
41221;SDS011;26952;42.884;23.918;2023-03-14T09:07:41;4.15;;;3.75;;
41221;SDS011;26952;42.884;23.918;2023-03-14T09:10:07;3.25;;;3.05;;
41221;SDS011;26952;42.884;23.918;2023-03-14T09:12:34;3.55;;;3.25;;
41221;SDS011;26952;42.884;23.918;2023-03-14T09:14:59;3.40;;;3.10;;
41221;SDS011;26952;42.884;23.918;2023-03-14T09:17:25;3.72;;;3.42;;
41221;SDS011;26952;42.884;23.918;2023-03-14T09:19:50;6.10;;;3.20;;
41221;SDS011;26952;42.884;23.918;2023-03-14T09:22:15;3.95;;;3.65;;
41221;SDS011;26952;42.884;23.918;2023-03-14T09:24:41;3.45;;;3.15;;
41221;SDS011;26952;42.884;23.918;2023-03-14T09:27:07;2.95;;;2.75;;
41221;SDS011;26952;42.884;23.918;2023-03-14T09:29:33;2.80;;;2.60;;
41221;SDS011;26952;42.884;23.918;2023-03-14T09:31:58;4.00;;;2.85;;
41221;SDS011;26952;42.884;23.918;2023-03-14T09:34:24;4.18;;;2.63;;
41221;SDS011;26952;42.884;23.918;2023-03-14T09:36:49;3.20;;;2.90;;
41221;SDS011;26952;42.884;23.918;2023-03-14T09:39:15;4.13;;;3.33;;
41221;SDS011;26952;42.884;23.918;2023-03-14T09:41:43;4.03;;;3.72;;
41221;SDS011;26952;42.884;23.918;2023-03-14T09:47:06;3.80;;;3.53;;
41221;SDS011;26952;42.884;23.918;2023-03-14T09:49:37;4.55;;;4.15;;
41221;SDS011;26952;42.884;23.918;2023-03-14T09:52:07;4.63;;;4.32;;
41221;SDS011;26952;42.884;23.918;2023-03-14T09:54:47;4.25;;;3.95;;
41221;SDS011;26952;42.884;23.918;2023-03-14T09:57:19;5.05;;;4.55;;
41221;SDS011;26952;42.884;23.918;2023-03-14T09:59:48;4.88;;;4.43;;
41221;SDS011;26952;42.884;23.918;2023-03-14T10:02:25;4.60;;;4.20;;
41221;SDS011;26952;42.884;23.918;2023-03-14T10:04:56;4.78;;;4.38;;
41221;SDS011;26952;42.884;23.918;2023-03-14T10:07:24;4.90;;;3.80;;
41221;SDS011;26952;42.884;23.918;2023-03-14T10:09:53;4.93;;;3.88;;
41221;SDS011;26952;42.884;23.918;2023-03-14T10:12:19;4.47;;;3.78;;
41221;SDS011;26952;42.884;23.918;2023-03-14T10:14:48;4.22;;;3.92;;
41221;SDS011;26952;42.884;23.918;2023-03-14T10:17:16;4.85;;;4.30;;
41221;SDS011;26952;42.884;23.918;2023-03-14T10:19:55;5.45;;;5.05;;
41221;SDS011;26952;42.884;23.918;2023-03-14T10:22:24;4.78;;;4.47;;
41221;SDS011;26952;42.884;23.918;2023-03-14T10:24:57;4.63;;;4.32;;
41221;SDS011;26952;42.884;23.918;2023-03-14T10:27:28;4.40;;;4.00;;
41221;SDS011;26952;42.884;23.918;2023-03-14T10:30:43;4.78;;;4.40;;
41221;SDS011;26952;42.884;23.918;2023-03-14T10:32:52;5.78;;;3.78;;
41221;SDS011;26952;42.884;23.918;2023-03-14T10:35:19;4.38;;;4.05;;
41221;SDS011;26952;42.884;23.918;2023-03-14T10:40:32;4.30;;;4.00;;
41221;SDS011;26952;42.884;23.918;2023-03-14T10:42:59;4.75;;;4.35;;
41221;SDS011;26952;42.884;23.918;2023-03-14T10:45:31;4.30;;;4.00;;
41221;SDS011;26952;42.884;23.918;2023-03-14T10:48:05;3.80;;;3.50;;
41221;SDS011;26952;42.884;23.918;2023-03-14T10:50:56;3.97;;;3.67;;
41221;SDS011;26952;42.884;23.918;2023-03-14T10:53:24;4.20;;;3.90;;
41221;SDS011;26952;42.884;23.918;2023-03-14T10:55:50;4.72;;;4.43;;
41221;SDS011;26952;42.884;23.918;2023-03-14T10:58:26;4.22;;;3.92;;
41221;SDS011;26952;42.884;23.918;2023-03-14T11:03:29;4.03;;;3.72;;
41221;SDS011;26952;42.884;23.918;2023-03-14T11:11:28;5.65;;;3.65;;
41221;SDS011;26952;42.884;23.918;2023-03-14T11:16:34;4.57;;;4.20;;
41221;SDS011;26952;42.884;23.918;2023-03-14T11:22:03;4.47;;;4.18;;
41221;SDS011;26952;42.884;23.918;2023-03-14T11:24:57;4.27;;;3.97;;
41221;SDS011;26952;42.884;23.918;2023-03-14T11:27:30;4.03;;;3.72;;
41221;SDS011;26952;42.884;23.918;2023-03-14T11:30:17;3.60;;;3.40;;
41221;SDS011;26952;42.884;23.918;2023-03-14T11:32:48;4.50;;;4.10;;
41221;SDS011;26952;42.884;23.918;2023-03-14T11:37:54;4.82;;;4.38;;
41221;SDS011;26952;42.884;23.918;2023-03-14T11:40:27;4.00;;;3.80;;
41221;SDS011;26952;42.884;23.918;2023-03-14T11:42:59;5.38;;;4.88;;
41221;SDS011;26952;42.884;23.918;2023-03-14T11:45:30;4.63;;;4.35;;
41221;SDS011;26952;42.884;23.918;2023-03-14T11:51:15;5.45;;;4.95;;
41221;SDS011;26952;42.884;23.918;2023-03-14T11:56:31;3.72;;;3.53;;
41221;SDS011;26952;42.884;23.918;2023-03-14T11:59:07;4.30;;;4.10;;
41221;SDS011;26952;42.884;23.918;2023-03-14T12:01:51;3.83;;;3.63;;
41221;SDS011;26952;42.884;23.918;2023-03-14T12:07:18;5.07;;;4.72;;
41221;SDS011;26952;42.884;23.918;2023-03-14T12:09:46;4.43;;;4.03;;
41221;SDS011;26952;42.884;23.918;2023-03-14T12:12:14;4.90;;;4.60;;
41221;SDS011;26952;42.884;23.918;2023-03-14T12:14:55;4.80;;;4.57;;
41221;SDS011;26952;42.884;23.918;2023-03-14T12:17:37;5.18;;;4.88;;
41221;SDS011;26952;42.884;23.918;2023-03-14T12:22:43;7.40;;;5.90;;
41221;SDS011;26952;42.884;23.918;2023-03-14T12:30:25;6.50;;;6.20;;
41221;SDS011;26952;42.884;23.918;2023-03-14T12:35:44;4.35;;;3.03;;
41221;SDS011;26952;42.884;23.918;2023-03-14T12:38:14;2.75;;;2.55;;
41221;SDS011;26952;42.884;23.918;2023-03-14T12:43:53;3.35;;;3.05;;
41221;SDS011;26952;42.884;23.918;2023-03-14T12:46:25;3.17;;;2.97;;
41221;SDS011;26952;42.884;23.918;2023-03-14T12:51:35;4.90;;;4.65;;
41221;SDS011;26952;42.884;23.918;2023-03-14T12:54:06;3.97;;;3.78;;
41221;SDS011;26952;42.884;23.918;2023-03-14T13:04:36;3.00;;;2.80;;
41221;SDS011;26952;42.884;23.918;2023-03-14T13:07:13;3.42;;;3.13;;
41221;SDS011;26952;42.884;23.918;2023-03-14T13:12:51;3.72;;;3.53;;
41221;SDS011;26952;42.884;23.918;2023-03-14T13:15:17;3.42;;;3.20;;
41221;SDS011;26952;42.884;23.918;2023-03-14T13:17:43;2.60;;;2.50;;
41221;SDS011;26952;42.884;23.918;2023-03-14T13:20:30;2.80;;;2.70;;
41221;SDS011;26952;42.884;23.918;2023-03-14T13:23:01;3.92;;;3.00;;
41221;SDS011;26952;42.884;23.918;2023-03-14T13:25:31;2.80;;;2.60;;
41221;SDS011;26952;42.884;23.918;2023-03-14T13:27:58;3.47;;;3.28;;
41221;SDS011;26952;42.884;23.918;2023-03-14T13:30:25;2.83;;;2.63;;
41221;SDS011;26952;42.884;23.918;2023-03-14T13:32:53;3.35;;;3.15;;
41221;SDS011;26952;42.884;23.918;2023-03-14T13:35:25;3.30;;;3.10;;
41221;SDS011;26952;42.884;23.918;2023-03-14T13:38:01;3.25;;;3.05;;
41221;SDS011;26952;42.884;23.918;2023-03-14T13:40:33;3.88;;;3.30;;
41221;SDS011;26952;42.884;23.918;2023-03-14T13:43:03;7.70;;;6.15;;
41221;SDS011;26952;42.884;23.918;2023-03-14T13:45:49;8.75;;;7.00;;
41221;SDS011;26952;42.884;23.918;2023-03-14T13:48:16;4.07;;;3.78;;
41221;SDS011;26952;42.884;23.918;2023-03-14T13:50:48;3.97;;;3.60;;
41221;SDS011;26952;42.884;23.918;2023-03-14T13:53:16;4.68;;;4.47;;
41221;SDS011;26952;42.884;23.918;2023-03-14T13:55:42;5.15;;;4.85;;
41221;SDS011;26952;42.884;23.918;2023-03-14T13:58:12;4.45;;;4.25;;
41221;SDS011;26952;42.884;23.918;2023-03-14T14:00:57;3.38;;;3.17;;
41221;SDS011;26952;42.884;23.918;2023-03-14T14:03:26;3.60;;;3.40;;
41221;SDS011;26952;42.884;23.918;2023-03-14T14:05:54;3.40;;;3.20;;
41221;SDS011;26952;42.884;23.918;2023-03-14T14:08:21;3.83;;;3.60;;
41221;SDS011;26952;42.884;23.918;2023-03-14T14:10:47;5.03;;;4.72;;
41221;SDS011;26952;42.884;23.918;2023-03-14T14:13:15;5.95;;;5.65;;
41221;SDS011;26952;42.884;23.918;2023-03-14T14:15:45;6.20;;;5.80;;
41221;SDS011;26952;42.884;23.918;2023-03-14T14:18:15;6.00;;;5.60;;
41221;SDS011;26952;42.884;23.918;2023-03-14T14:20:44;4.65;;;4.45;;
41221;SDS011;26952;42.884;23.918;2023-03-14T14:23:12;5.15;;;4.85;;
41221;SDS011;26952;42.884;23.918;2023-03-14T14:25:40;6.28;;;5.97;;
41221;SDS011;26952;42.884;23.918;2023-03-14T14:38:58;5.15;;;4.85;;
41221;SDS011;26952;42.884;23.918;2023-03-14T14:41:26;4.00;;;3.67;;
41221;SDS011;26952;42.884;23.918;2023-03-14T14:43:53;5.15;;;4.85;;
41221;SDS011;26952;42.884;23.918;2023-03-14T14:46:20;4.22;;;4.03;;
41221;SDS011;26952;42.884;23.918;2023-03-14T14:48:46;5.22;;;4.72;;
41221;SDS011;26952;42.884;23.918;2023-03-14T14:51:22;4.60;;;4.30;;
41221;SDS011;26952;42.884;23.918;2023-03-14T14:53:59;5.25;;;4.95;;
41221;SDS011;26952;42.884;23.918;2023-03-14T14:56:27;5.00;;;4.70;;
41221;SDS011;26952;42.884;23.918;2023-03-14T14:58:59;5.35;;;5.05;;
41221;SDS011;26952;42.884;23.918;2023-03-14T15:01:37;5.53;;;5.22;;
41221;SDS011;26952;42.884;23.918;2023-03-14T15:04:09;5.55;;;5.18;;
41221;SDS011;26952;42.884;23.918;2023-03-14T15:06:38;5.80;;;5.50;;
41221;SDS011;26952;42.884;23.918;2023-03-14T15:09:05;5.63;;;5.32;;
41221;SDS011;26952;42.884;23.918;2023-03-14T15:11:30;6.43;;;6.03;;
41221;SDS011;26952;42.884;23.918;2023-03-14T15:13:56;6.88;;;6.47;;
41221;SDS011;26952;42.884;23.918;2023-03-14T15:16:22;6.28;;;5.97;;
41221;SDS011;26952;42.884;23.918;2023-03-14T15:18:54;7.18;;;6.68;;
41221;SDS011;26952;42.884;23.918;2023-03-14T15:21:22;5.68;;;5.28;;
41221;SDS011;26952;42.884;23.918;2023-03-14T15:23:48;6.55;;;6.15;;
41221;SDS011;26952;42.884;23.918;2023-03-14T15:26:15;6.45;;;6.05;;
41221;SDS011;26952;42.884;23.918;2023-03-14T15:28:43;5.97;;;5.57;;
41221;SDS011;26952;42.884;23.918;2023-03-14T15:31:09;6.47;;;6.07;;
41221;SDS011;26952;42.884;23.918;2023-03-14T15:33:36;5.97;;;5.57;;
41221;SDS011;26952;42.884;23.918;2023-03-14T15:36:02;6.68;;;6.30;;
41221;SDS011;26952;42.884;23.918;2023-03-14T15:38:29;6.28;;;5.88;;
41221;SDS011;26952;42.884;23.918;2023-03-14T15:40:54;5.82;;;5.43;;
41221;SDS011;26952;42.884;23.918;2023-03-14T15:43:20;5.53;;;5.22;;
41221;SDS011;26952;42.884;23.918;2023-03-14T15:45:45;4.80;;;4.50;;
41221;SDS011;26952;42.884;23.918;2023-03-14T15:48:15;4.68;;;4.38;;
41221;SDS011;26952;42.884;23.918;2023-03-14T15:50:42;5.25;;;4.68;;
41221;SDS011;26952;42.884;23.918;2023-03-14T15:53:08;4.32;;;4.10;;
41221;SDS011;26952;42.884;23.918;2023-03-14T15:55:33;4.45;;;4.15;;